sensor_id;sensor_type;location;lat;lon;timestamp;P1;durP1;ratioP1;P2;durP2;ratioP2
21503;SDS011;10913;51.992;9.228;2022-07-23T00:01:38;7.00;;;5.05;;
21503;SDS011;10913;51.992;9.228;2022-07-23T00:04:06;6.75;;;5.43;;
21503;SDS011;10913;51.992;9.228;2022-07-23T00:06:37;5.40;;;4.85;;
21503;SDS011;10913;51.992;9.228;2022-07-23T00:09:06;7.75;;;5.07;;
21503;SDS011;10913;51.992;9.228;2022-07-23T00:11:31;6.60;;;4.80;;
21503;SDS011;10913;51.992;9.228;2022-07-23T00:14:06;5.22;;;4.70;;
21503;SDS011;10913;51.992;9.228;2022-07-23T00:16:34;5.95;;;4.78;;
21503;SDS011;10913;51.992;9.228;2022-07-23T00:18:59;5.20;;;4.70;;
21503;SDS011;10913;51.992;9.228;2022-07-23T00:21:27;4.95;;;4.50;;
21503;SDS011;10913;51.992;9.228;2022-07-23T00:23:53;4.82;;;4.43;;
21503;SDS011;10913;51.992;9.228;2022-07-23T00:26:18;5.45;;;4.60;;
21503;SDS011;10913;51.992;9.228;2022-07-23T00:28:43;5.05;;;4.55;;
21503;SDS011;10913;51.992;9.228;2022-07-23T00:31:09;8.00;;;4.78;;
21503;SDS011;10913;51.992;9.228;2022-07-23T00:33:34;5.45;;;4.68;;
21503;SDS011;10913;51.992;9.228;2022-07-23T00:35:59;5.05;;;4.43;;
21503;SDS011;10913;51.992;9.228;2022-07-23T00:38:25;6.53;;;5.00;;
21503;SDS011;10913;51.992;9.228;2022-07-23T00:40:50;6.28;;;4.72;;
21503;SDS011;10913;51.992;9.228;2022-07-23T00:43:16;6.25;;;4.95;;
21503;SDS011;10913;51.992;9.228;2022-07-23T00:45:41;5.93;;;4.57;;
21503;SDS011;10913;51.992;9.228;2022-07-23T00:48:06;5.63;;;4.72;;
21503;SDS011;10913;51.992;9.228;2022-07-23T00:50:32;5.93;;;5.32;;
21503;SDS011;10913;51.992;9.228;2022-07-23T00:52:57;5.45;;;4.95;;
21503;SDS011;10913;51.992;9.228;2022-07-23T00:55:23;6.75;;;4.93;;
21503;SDS011;10913;51.992;9.228;2022-07-23T00:57:49;7.40;;;5.30;;
21503;SDS011;10913;51.992;9.228;2022-07-23T01:00:15;6.20;;;4.78;;
21503;SDS011;10913;51.992;9.228;2022-07-23T01:02:41;7.07;;;5.13;;
21503;SDS011;10913;51.992;9.228;2022-07-23T01:05:07;6.47;;;4.97;;
21503;SDS011;10913;51.992;9.228;2022-07-23T01:07:33;7.35;;;5.43;;
21503;SDS011;10913;51.992;9.228;2022-07-23T01:09:59;5.32;;;4.85;;
21503;SDS011;10913;51.992;9.228;2022-07-23T01:12:25;6.68;;;5.20;;
21503;SDS011;10913;51.992;9.228;2022-07-23T01:14:57;9.10;;;5.68;;
21503;SDS011;10913;51.992;9.228;2022-07-23T01:17:24;6.60;;;5.03;;
21503;SDS011;10913;51.992;9.228;2022-07-23T01:19:50;6.30;;;5.05;;
21503;SDS011;10913;51.992;9.228;2022-07-23T01:22:17;5.50;;;5.00;;
21503;SDS011;10913;51.992;9.228;2022-07-23T01:24:43;5.65;;;4.88;;
21503;SDS011;10913;51.992;9.228;2022-07-23T01:27:09;4.88;;;4.38;;
21503;SDS011;10913;51.992;9.228;2022-07-23T01:29:34;6.28;;;5.00;;
21503;SDS011;10913;51.992;9.228;2022-07-23T01:32:00;6.53;;;5.55;;
21503;SDS011;10913;51.992;9.228;2022-07-23T01:34:25;7.70;;;5.57;;
21503;SDS011;10913;51.992;9.228;2022-07-23T01:36:50;8.13;;;6.45;;
21503;SDS011;10913;51.992;9.228;2022-07-23T01:39:16;7.93;;;6.30;;
21503;SDS011;10913;51.992;9.228;2022-07-23T01:41:41;7.47;;;5.90;;
21503;SDS011;10913;51.992;9.228;2022-07-23T01:44:06;6.30;;;5.60;;
21503;SDS011;10913;51.992;9.228;2022-07-23T01:46:32;6.50;;;5.78;;
21503;SDS011;10913;51.992;9.228;2022-07-23T01:48:57;7.32;;;5.80;;
21503;SDS011;10913;51.992;9.228;2022-07-23T01:51:23;6.00;;;5.40;;
21503;SDS011;10913;51.992;9.228;2022-07-23T01:53:48;7.50;;;5.30;;
21503;SDS011;10913;51.992;9.228;2022-07-23T01:56:13;5.97;;;5.47;;
21503;SDS011;10913;51.992;9.228;2022-07-23T01:58:40;6.85;;;5.78;;
21503;SDS011;10913;51.992;9.228;2022-07-23T02:01:05;8.15;;;5.88;;
21503;SDS011;10913;51.992;9.228;2022-07-23T02:03:31;6.38;;;5.78;;
21503;SDS011;10913;51.992;9.228;2022-07-23T02:05:56;10.40;;;6.85;;
21503;SDS011;10913;51.992;9.228;2022-07-23T02:08:22;6.60;;;5.90;;
21503;SDS011;10913;51.992;9.228;2022-07-23T02:10:47;7.18;;;6.07;;
21503;SDS011;10913;51.992;9.228;2022-07-23T02:13:13;6.60;;;5.68;;
21503;SDS011;10913;51.992;9.228;2022-07-23T02:15:39;5.82;;;5.30;;
21503;SDS011;10913;51.992;9.228;2022-07-23T02:18:04;7.18;;;5.63;;
21503;SDS011;10913;51.992;9.228;2022-07-23T02:20:30;6.68;;;5.15;;
21503;SDS011;10913;51.992;9.228;2022-07-23T02:22:55;6.22;;;5.38;;
21503;SDS011;10913;51.992;9.228;2022-07-23T02:25:21;9.18;;;5.93;;
21503;SDS011;10913;51.992;9.228;2022-07-23T02:27:46;7.03;;;6.32;;
21503;SDS011;10913;51.992;9.228;2022-07-23T02:30:11;7.32;;;6.53;;
21503;SDS011;10913;51.992;9.228;2022-07-23T02:32:37;6.68;;;6.00;;
21503;SDS011;10913;51.992;9.228;2022-07-23T02:35:04;6.68;;;6.03;;
21503;SDS011;10913;51.992;9.228;2022-07-23T02:37:30;7.05;;;5.50;;
21503;SDS011;10913;51.992;9.228;2022-07-23T02:39:56;6.47;;;5.88;;
21503;SDS011;10913;51.992;9.228;2022-07-23T02:42:22;6.38;;;5.55;;
21503;SDS011;10913;51.992;9.228;2022-07-23T02:44:48;6.45;;;5.78;;
21503;SDS011;10913;51.992;9.228;2022-07-23T02:47:14;6.07;;;5.43;;
21503;SDS011;10913;51.992;9.228;2022-07-23T02:49:40;6.93;;;5.32;;
21503;SDS011;10913;51.992;9.228;2022-07-23T02:52:05;7.28;;;5.70;;
21503;SDS011;10913;51.992;9.228;2022-07-23T02:54:30;6.40;;;5.72;;
21503;SDS011;10913;51.992;9.228;2022-07-23T02:56:56;8.05;;;5.65;;
21503;SDS011;10913;51.992;9.228;2022-07-23T02:59:21;6.95;;;6.20;;
21503;SDS011;10913;51.992;9.228;2022-07-23T03:01:47;8.25;;;6.72;;
21503;SDS011;10913;51.992;9.228;2022-07-23T03:04:12;6.60;;;5.93;;
21503;SDS011;10913;51.992;9.228;2022-07-23T03:06:38;10.27;;;7.60;;
21503;SDS011;10913;51.992;9.228;2022-07-23T03:09:03;8.45;;;7.18;;
21503;SDS011;10913;51.992;9.228;2022-07-23T03:11:30;8.85;;;6.60;;
21503;SDS011;10913;51.992;9.228;2022-07-23T03:13:55;6.80;;;6.10;;
21503;SDS011;10913;51.992;9.228;2022-07-23T03:16:21;7.50;;;6.25;;
21503;SDS011;10913;51.992;9.228;2022-07-23T03:18:46;7.00;;;6.30;;
21503;SDS011;10913;51.992;9.228;2022-07-23T03:21:11;6.63;;;5.72;;
21503;SDS011;10913;51.992;9.228;2022-07-23T03:23:37;7.78;;;5.88;;
21503;SDS011;10913;51.992;9.228;2022-07-23T03:26:03;6.88;;;6.15;;
21503;SDS011;10913;51.992;9.228;2022-07-23T03:28:28;7.80;;;6.13;;
21503;SDS011;10913;51.992;9.228;2022-07-23T03:30:54;7.43;;;6.65;;
21503;SDS011;10913;51.992;9.228;2022-07-23T03:33:19;7.93;;;6.00;;
21503;SDS011;10913;51.992;9.228;2022-07-23T03:35:46;8.00;;;6.00;;
21503;SDS011;10913;51.992;9.228;2022-07-23T03:38:12;7.07;;;5.78;;
21503;SDS011;10913;51.992;9.228;2022-07-23T03:40:38;9.85;;;6.38;;
21503;SDS011;10913;51.992;9.228;2022-07-23T03:43:03;7.50;;;6.10;;
21503;SDS011;10913;51.992;9.228;2022-07-23T03:45:29;6.95;;;6.35;;
21503;SDS011;10913;51.992;9.228;2022-07-23T03:47:55;7.53;;;6.40;;
21503;SDS011;10913;51.992;9.228;2022-07-23T03:50:20;6.70;;;6.07;;
21503;SDS011;10913;51.992;9.228;2022-07-23T03:52:46;6.85;;;5.90;;
21503;SDS011;10913;51.992;9.228;2022-07-23T03:55:11;7.20;;;5.60;;
21503;SDS011;10913;51.992;9.228;2022-07-23T03:57:37;6.20;;;5.60;;
21503;SDS011;10913;51.992;9.228;2022-07-23T04:00:03;8.20;;;6.18;;
21503;SDS011;10913;51.992;9.228;2022-07-23T04:02:31;7.22;;;6.50;;
21503;SDS011;10913;51.992;9.228;2022-07-23T04:04:56;6.60;;;6.00;;
21503;SDS011;10913;51.992;9.228;2022-07-23T04:07:22;7.43;;;6.28;;
21503;SDS011;10913;51.992;9.228;2022-07-23T04:09:47;6.70;;;6.05;;
21503;SDS011;10913;51.992;9.228;2022-07-23T04:12:13;7.05;;;6.35;;
21503;SDS011;10913;51.992;9.228;2022-07-23T04:14:38;6.88;;;6.13;;
21503;SDS011;10913;51.992;9.228;2022-07-23T04:17:04;6.88;;;5.90;;
21503;SDS011;10913;51.992;9.228;2022-07-23T04:19:29;7.13;;;6.05;;
21503;SDS011;10913;51.992;9.228;2022-07-23T04:21:55;7.45;;;6.38;;
21503;SDS011;10913;51.992;9.228;2022-07-23T04:24:21;8.35;;;6.28;;
21503;SDS011;10913;51.992;9.228;2022-07-23T04:26:46;7.65;;;6.70;;
21503;SDS011;10913;51.992;9.228;2022-07-23T04:29:11;7.15;;;6.45;;
21503;SDS011;10913;51.992;9.228;2022-07-23T04:31:37;7.40;;;6.15;;
21503;SDS011;10913;51.992;9.228;2022-07-23T04:34:02;7.32;;;6.63;;
21503;SDS011;10913;51.992;9.228;2022-07-23T04:36:28;8.65;;;6.55;;
21503;SDS011;10913;51.992;9.228;2022-07-23T04:38:54;9.52;;;7.30;;
21503;SDS011;10913;51.992;9.228;2022-07-23T04:41:19;9.20;;;6.45;;
21503;SDS011;10913;51.992;9.228;2022-07-23T04:43:45;8.07;;;6.38;;
21503;SDS011;10913;51.992;9.228;2022-07-23T04:46:10;7.22;;;6.30;;
21503;SDS011;10913;51.992;9.228;2022-07-23T04:48:35;9.20;;;7.00;;
21503;SDS011;10913;51.992;9.228;2022-07-23T04:51:01;7.13;;;6.43;;
21503;SDS011;10913;51.992;9.228;2022-07-23T04:53:27;8.50;;;6.72;;
21503;SDS011;10913;51.992;9.228;2022-07-23T04:55:52;6.72;;;5.97;;
21503;SDS011;10913;51.992;9.228;2022-07-23T04:58:18;7.43;;;6.13;;
21503;SDS011;10913;51.992;9.228;2022-07-23T05:00:43;7.03;;;6.03;;
21503;SDS011;10913;51.992;9.228;2022-07-23T05:03:09;8.77;;;6.57;;
21503;SDS011;10913;51.992;9.228;2022-07-23T05:05:34;8.27;;;6.45;;
21503;SDS011;10913;51.992;9.228;2022-07-23T05:08:00;6.78;;;6.07;;
21503;SDS011;10913;51.992;9.228;2022-07-23T05:10:26;7.55;;;5.70;;
21503;SDS011;10913;51.992;9.228;2022-07-23T05:12:51;6.57;;;5.60;;
21503;SDS011;10913;51.992;9.228;2022-07-23T05:15:17;8.32;;;6.78;;
21503;SDS011;10913;51.992;9.228;2022-07-23T05:17:42;7.20;;;5.90;;
21503;SDS011;10913;51.992;9.228;2022-07-23T05:20:07;6.63;;;5.80;;
21503;SDS011;10913;51.992;9.228;2022-07-23T05:22:33;8.15;;;6.82;;
21503;SDS011;10913;51.992;9.228;2022-07-23T05:24:59;7.55;;;6.43;;
21503;SDS011;10913;51.992;9.228;2022-07-23T05:27:24;6.70;;;6.10;;
21503;SDS011;10913;51.992;9.228;2022-07-23T05:29:49;6.57;;;5.70;;
21503;SDS011;10913;51.992;9.228;2022-07-23T05:32:15;7.72;;;6.13;;
21503;SDS011;10913;51.992;9.228;2022-07-23T05:34:40;7.28;;;6.28;;
21503;SDS011;10913;51.992;9.228;2022-07-23T05:37:06;8.30;;;6.88;;
21503;SDS011;10913;51.992;9.228;2022-07-23T05:39:31;8.80;;;6.60;;
21503;SDS011;10913;51.992;9.228;2022-07-23T05:41:56;8.05;;;6.50;;
21503;SDS011;10913;51.992;9.228;2022-07-23T05:44:22;6.88;;;5.93;;
21503;SDS011;10913;51.992;9.228;2022-07-23T05:46:47;6.45;;;5.72;;
21503;SDS011;10913;51.992;9.228;2022-07-23T05:49:12;7.38;;;6.68;;
21503;SDS011;10913;51.992;9.228;2022-07-23T05:51:38;8.23;;;7.30;;
21503;SDS011;10913;51.992;9.228;2022-07-23T05:54:03;9.80;;;8.18;;
21503;SDS011;10913;51.992;9.228;2022-07-23T05:56:29;8.40;;;6.65;;
21503;SDS011;10913;51.992;9.228;2022-07-23T05:58:54;10.68;;;7.35;;
21503;SDS011;10913;51.992;9.228;2022-07-23T06:01:19;8.85;;;7.80;;
21503;SDS011;10913;51.992;9.228;2022-07-23T06:03:45;8.55;;;7.28;;
21503;SDS011;10913;51.992;9.228;2022-07-23T06:06:10;8.52;;;7.22;;
21503;SDS011;10913;51.992;9.228;2022-07-23T06:08:35;10.07;;;8.15;;
21503;SDS011;10913;51.992;9.228;2022-07-23T06:11:01;9.93;;;6.93;;
21503;SDS011;10913;51.992;9.228;2022-07-23T06:13:26;7.88;;;6.22;;
21503;SDS011;10913;51.992;9.228;2022-07-23T06:15:51;8.75;;;7.10;;
21503;SDS011;10913;51.992;9.228;2022-07-23T06:18:17;7.63;;;6.47;;
21503;SDS011;10913;51.992;9.228;2022-07-23T06:20:43;7.03;;;6.03;;
21503;SDS011;10913;51.992;9.228;2022-07-23T06:23:09;7.45;;;5.88;;
21503;SDS011;10913;51.992;9.228;2022-07-23T06:25:34;8.20;;;6.10;;
21503;SDS011;10913;51.992;9.228;2022-07-23T06:27:59;7.00;;;6.30;;
21503;SDS011;10913;51.992;9.228;2022-07-23T06:30:25;6.38;;;5.28;;
21503;SDS011;10913;51.992;9.228;2022-07-23T06:32:50;6.75;;;5.30;;
21503;SDS011;10913;51.992;9.228;2022-07-23T06:35:16;6.90;;;5.57;;
21503;SDS011;10913;51.992;9.228;2022-07-23T06:37:42;6.40;;;5.68;;
21503;SDS011;10913;51.992;9.228;2022-07-23T06:40:08;6.88;;;6.22;;
21503;SDS011;10913;51.992;9.228;2022-07-23T06:42:33;6.22;;;5.45;;
21503;SDS011;10913;51.992;9.228;2022-07-23T06:45:01;5.90;;;5.30;;
21503;SDS011;10913;51.992;9.228;2022-07-23T06:47:31;7.40;;;6.00;;
21503;SDS011;10913;51.992;9.228;2022-07-23T06:49:57;8.57;;;5.55;;
21503;SDS011;10913;51.992;9.228;2022-07-23T06:52:23;6.13;;;5.32;;
21503;SDS011;10913;51.992;9.228;2022-07-23T06:54:48;7.07;;;5.68;;
21503;SDS011;10913;51.992;9.228;2022-07-23T06:57:14;6.82;;;5.18;;
21503;SDS011;10913;51.992;9.228;2022-07-23T06:59:40;6.82;;;5.95;;
21503;SDS011;10913;51.992;9.228;2022-07-23T07:02:05;7.32;;;5.40;;
21503;SDS011;10913;51.992;9.228;2022-07-23T07:04:31;6.30;;;5.60;;
21503;SDS011;10913;51.992;9.228;2022-07-23T07:06:57;8.25;;;5.85;;
21503;SDS011;10913;51.992;9.228;2022-07-23T07:09:22;6.78;;;5.35;;
21503;SDS011;10913;51.992;9.228;2022-07-23T07:11:48;5.18;;;4.65;;
21503;SDS011;10913;51.992;9.228;2022-07-23T07:14:13;6.25;;;4.75;;
21503;SDS011;10913;51.992;9.228;2022-07-23T07:16:38;6.78;;;5.07;;
21503;SDS011;10913;51.992;9.228;2022-07-23T07:19:04;5.45;;;4.53;;
21503;SDS011;10913;51.992;9.228;2022-07-23T07:21:29;6.53;;;4.82;;
21503;SDS011;10913;51.992;9.228;2022-07-23T07:23:55;7.60;;;4.70;;
21503;SDS011;10913;51.992;9.228;2022-07-23T07:26:20;4.03;;;3.63;;
21503;SDS011;10913;51.992;9.228;2022-07-23T07:28:45;5.68;;;4.30;;
21503;SDS011;10913;51.992;9.228;2022-07-23T07:31:11;8.05;;;4.95;;
21503;SDS011;10913;51.992;9.228;2022-07-23T07:33:36;4.88;;;3.97;;
21503;SDS011;10913;51.992;9.228;2022-07-23T07:36:02;6.75;;;3.83;;
21503;SDS011;10913;51.992;9.228;2022-07-23T07:38:27;3.90;;;3.50;;
21503;SDS011;10913;51.992;9.228;2022-07-23T07:40:53;4.25;;;3.65;;
21503;SDS011;10913;51.992;9.228;2022-07-23T07:43:18;6.07;;;4.35;;
21503;SDS011;10913;51.992;9.228;2022-07-23T07:45:44;5.40;;;3.55;;
21503;SDS011;10913;51.992;9.228;2022-07-23T07:48:09;4.57;;;3.80;;
21503;SDS011;10913;51.992;9.228;2022-07-23T07:50:35;4.82;;;3.65;;
21503;SDS011;10913;51.992;9.228;2022-07-23T07:53:00;5.28;;;3.70;;
21503;SDS011;10913;51.992;9.228;2022-07-23T07:55:25;3.58;;;3.28;;
21503;SDS011;10913;51.992;9.228;2022-07-23T07:57:52;4.47;;;3.40;;
21503;SDS011;10913;51.992;9.228;2022-07-23T08:00:17;4.35;;;3.28;;
21503;SDS011;10913;51.992;9.228;2022-07-23T08:02:44;4.82;;;3.53;;
21503;SDS011;10913;51.992;9.228;2022-07-23T08:05:14;6.70;;;3.40;;
21503;SDS011;10913;51.992;9.228;2022-07-23T08:07:43;4.38;;;3.05;;
21503;SDS011;10913;51.992;9.228;2022-07-23T08:10:09;4.80;;;3.08;;
21503;SDS011;10913;51.992;9.228;2022-07-23T08:12:42;5.07;;;2.90;;
21503;SDS011;10913;51.992;9.228;2022-07-23T08:15:17;4.32;;;3.50;;
21503;SDS011;10913;51.992;9.228;2022-07-23T08:17:43;5.57;;;4.10;;
21503;SDS011;10913;51.992;9.228;2022-07-23T08:20:10;3.90;;;3.22;;
21503;SDS011;10913;51.992;9.228;2022-07-23T08:22:41;4.80;;;3.05;;
21503;SDS011;10913;51.992;9.228;2022-07-23T08:25:10;5.97;;;3.90;;
21503;SDS011;10913;51.992;9.228;2022-07-23T08:27:36;6.60;;;4.40;;
21503;SDS011;10913;51.992;9.228;2022-07-23T08:30:01;4.63;;;3.35;;
21503;SDS011;10913;51.992;9.228;2022-07-23T08:32:26;4.75;;;3.10;;
21503;SDS011;10913;51.992;9.228;2022-07-23T08:34:52;4.20;;;2.70;;
21503;SDS011;10913;51.992;9.228;2022-07-23T08:37:17;3.45;;;2.97;;
21503;SDS011;10913;51.992;9.228;2022-07-23T08:39:42;2.92;;;2.50;;
21503;SDS011;10913;51.992;9.228;2022-07-23T08:42:08;2.67;;;2.45;;
21503;SDS011;10913;51.992;9.228;2022-07-23T08:44:34;4.60;;;2.72;;
21503;SDS011;10913;51.992;9.228;2022-07-23T08:47:00;3.83;;;2.80;;
21503;SDS011;10913;51.992;9.228;2022-07-23T08:49:26;4.13;;;2.60;;
21503;SDS011;10913;51.992;9.228;2022-07-23T08:51:54;4.35;;;3.17;;
21503;SDS011;10913;51.992;9.228;2022-07-23T08:54:20;4.65;;;2.92;;
21503;SDS011;10913;51.992;9.228;2022-07-23T08:56:47;2.78;;;2.58;;
21503;SDS011;10913;51.992;9.228;2022-07-23T08:59:14;2.90;;;2.65;;
21503;SDS011;10913;51.992;9.228;2022-07-23T09:01:39;3.67;;;2.88;;
21503;SDS011;10913;51.992;9.228;2022-07-23T09:04:05;4.55;;;2.95;;
21503;SDS011;10913;51.992;9.228;2022-07-23T09:06:30;5.18;;;2.70;;
21503;SDS011;10913;51.992;9.228;2022-07-23T09:08:55;5.35;;;3.10;;
21503;SDS011;10913;51.992;9.228;2022-07-23T09:11:21;4.88;;;2.80;;
21503;SDS011;10913;51.992;9.228;2022-07-23T09:13:53;4.50;;;2.20;;
21503;SDS011;10913;51.992;9.228;2022-07-23T09:18:55;2.92;;;2.50;;
21503;SDS011;10913;51.992;9.228;2022-07-23T09:31:32;2.83;;;2.25;;
21503;SDS011;10913;51.992;9.228;2022-07-23T09:34:10;4.13;;;2.97;;
21503;SDS011;10913;51.992;9.228;2022-07-23T09:36:36;2.85;;;2.35;;
21503;SDS011;10913;51.992;9.228;2022-07-23T09:39:02;2.75;;;2.15;;
21503;SDS011;10913;51.992;9.228;2022-07-23T09:41:33;3.13;;;2.40;;
21503;SDS011;10913;51.992;9.228;2022-07-23T09:44:06;3.08;;;2.10;;
21503;SDS011;10913;51.992;9.228;2022-07-23T09:46:36;2.45;;;1.88;;
21503;SDS011;10913;51.992;9.228;2022-07-23T09:49:09;4.00;;;2.10;;
21503;SDS011;10913;51.992;9.228;2022-07-23T09:51:47;3.13;;;2.05;;
21503;SDS011;10913;51.992;9.228;2022-07-23T09:56:59;3.55;;;2.30;;
21503;SDS011;10913;51.992;9.228;2022-07-23T09:59:32;3.65;;;1.90;;
21503;SDS011;10913;51.992;9.228;2022-07-23T10:02:02;3.63;;;2.55;;
21503;SDS011;10913;51.992;9.228;2022-07-23T10:04:29;1.98;;;1.77;;
21503;SDS011;10913;51.992;9.228;2022-07-23T10:06:56;3.00;;;1.83;;
21503;SDS011;10913;51.992;9.228;2022-07-23T10:09:33;2.80;;;2.15;;
21503;SDS011;10913;51.992;9.228;2022-07-23T10:14:36;5.35;;;2.15;;
21503;SDS011;10913;51.992;9.228;2022-07-23T10:17:04;1.77;;;1.67;;
21503;SDS011;10913;51.992;9.228;2022-07-23T10:19:30;1.98;;;1.80;;
21503;SDS011;10913;51.992;9.228;2022-07-23T10:21:58;2.40;;;1.92;;
21503;SDS011;10913;51.992;9.228;2022-07-23T10:28:15;4.32;;;2.00;;
21503;SDS011;10913;51.992;9.228;2022-07-23T10:33:27;2.45;;;1.77;;
21503;SDS011;10913;51.992;9.228;2022-07-23T10:36:07;2.33;;;1.70;;
21503;SDS011;10913;51.992;9.228;2022-07-23T10:38:52;1.92;;;1.40;;
21503;SDS011;10913;51.992;9.228;2022-07-23T10:41:31;3.72;;;1.73;;
21503;SDS011;10913;51.992;9.228;2022-07-23T10:46:35;2.45;;;1.52;;
21503;SDS011;10913;51.992;9.228;2022-07-23T10:49:23;1.70;;;1.60;;
21503;SDS011;10913;51.992;9.228;2022-07-23T10:54:41;2.13;;;1.60;;
21503;SDS011;10913;51.992;9.228;2022-07-23T10:57:12;2.60;;;1.63;;
21503;SDS011;10913;51.992;9.228;2022-07-23T11:02:44;2.13;;;1.48;;
21503;SDS011;10913;51.992;9.228;2022-07-23T11:05:13;1.52;;;1.42;;
21503;SDS011;10913;51.992;9.228;2022-07-23T11:10:34;1.50;;;1.40;;
21503;SDS011;10913;51.992;9.228;2022-07-23T11:31:53;2.17;;;1.73;;
21503;SDS011;10913;51.992;9.228;2022-07-23T11:37:03;2.13;;;1.60;;
21503;SDS011;10913;51.992;9.228;2022-07-23T11:39:30;1.63;;;1.52;;
21503;SDS011;10913;51.992;9.228;2022-07-23T11:41:57;3.55;;;1.52;;
21503;SDS011;10913;51.992;9.228;2022-07-23T11:44:27;2.25;;;1.60;;
21503;SDS011;10913;51.992;9.228;2022-07-23T11:46:57;1.98;;;1.77;;
21503;SDS011;10913;51.992;9.228;2022-07-23T11:49:24;2.00;;;1.60;;
21503;SDS011;10913;51.992;9.228;2022-07-23T11:57:13;2.78;;;1.58;;
21503;SDS011;10913;51.992;9.228;2022-07-23T11:59:39;2.67;;;1.83;;
21503;SDS011;10913;51.992;9.228;2022-07-23T12:02:05;2.13;;;1.52;;
21503;SDS011;10913;51.992;9.228;2022-07-23T12:04:45;2.08;;;1.58;;
21503;SDS011;10913;51.992;9.228;2022-07-23T12:10:09;2.50;;;1.88;;
21503;SDS011;10913;51.992;9.228;2022-07-23T12:15:08;1.90;;;1.65;;
21503;SDS011;10913;51.992;9.228;2022-07-23T12:17:36;3.05;;;2.10;;
21503;SDS011;10913;51.992;9.228;2022-07-23T12:20:04;2.00;;;1.73;;
21503;SDS011;10913;51.992;9.228;2022-07-23T12:25:10;1.80;;;1.70;;
21503;SDS011;10913;51.992;9.228;2022-07-23T12:27:43;1.83;;;1.73;;
21503;SDS011;10913;51.992;9.228;2022-07-23T12:30:19;2.20;;;1.70;;
21503;SDS011;10913;51.992;9.228;2022-07-23T12:32:56;2.88;;;1.80;;
21503;SDS011;10913;51.992;9.228;2022-07-23T12:35:22;2.38;;;1.90;;
21503;SDS011;10913;51.992;9.228;2022-07-23T12:37:49;2.55;;;1.70;;
21503;SDS011;10913;51.992;9.228;2022-07-23T12:42:46;1.65;;;1.50;;
21503;SDS011;10913;51.992;9.228;2022-07-23T12:45:13;1.65;;;1.40;;
21503;SDS011;10913;51.992;9.228;2022-07-23T12:53:16;2.67;;;1.65;;
21503;SDS011;10913;51.992;9.228;2022-07-23T12:55:49;1.88;;;1.67;;
21503;SDS011;10913;51.992;9.228;2022-07-23T12:58:16;2.28;;;1.55;;
21503;SDS011;10913;51.992;9.228;2022-07-23T13:03:28;2.58;;;1.90;;
21503;SDS011;10913;51.992;9.228;2022-07-23T13:05:54;2.92;;;1.80;;
21503;SDS011;10913;51.992;9.228;2022-07-23T13:08:20;1.50;;;1.40;;
21503;SDS011;10913;51.992;9.228;2022-07-23T13:10:47;2.83;;;1.60;;
21503;SDS011;10913;51.992;9.228;2022-07-23T13:13:14;2.38;;;1.65;;
21503;SDS011;10913;51.992;9.228;2022-07-23T13:15:40;1.50;;;1.40;;
21503;SDS011;10913;51.992;9.228;2022-07-23T13:18:05;1.95;;;1.60;;
21503;SDS011;10913;51.992;9.228;2022-07-23T13:20:31;2.22;;;2.00;;
21503;SDS011;10913;51.992;9.228;2022-07-23T13:22:57;2.20;;;1.63;;
21503;SDS011;10913;51.992;9.228;2022-07-23T13:25:23;1.80;;;1.38;;
21503;SDS011;10913;51.992;9.228;2022-07-23T13:27:48;1.60;;;1.50;;
21503;SDS011;10913;51.992;9.228;2022-07-23T13:30:13;1.77;;;1.58;;
21503;SDS011;10913;51.992;9.228;2022-07-23T13:32:40;2.13;;;1.60;;
21503;SDS011;10913;51.992;9.228;2022-07-23T13:35:05;3.15;;;1.50;;
21503;SDS011;10913;51.992;9.228;2022-07-23T13:37:31;2.90;;;1.63;;
21503;SDS011;10913;51.992;9.228;2022-07-23T13:39:56;2.17;;;1.38;;
21503;SDS011;10913;51.992;9.228;2022-07-23T13:42:22;2.20;;;1.40;;
21503;SDS011;10913;51.992;9.228;2022-07-23T13:44:47;1.63;;;1.40;;
21503;SDS011;10913;51.992;9.228;2022-07-23T13:47:13;1.65;;;1.30;;
21503;SDS011;10913;51.992;9.228;2022-07-23T13:49:38;3.13;;;1.52;;
21503;SDS011;10913;51.992;9.228;2022-07-23T13:52:04;2.03;;;1.40;;
21503;SDS011;10913;51.992;9.228;2022-07-23T13:54:29;2.67;;;1.60;;
21503;SDS011;10913;51.992;9.228;2022-07-23T13:56:55;2.95;;;1.42;;
21503;SDS011;10913;51.992;9.228;2022-07-23T13:59:20;1.40;;;1.30;;
21503;SDS011;10913;51.992;9.228;2022-07-23T14:01:46;2.08;;;1.40;;
21503;SDS011;10913;51.992;9.228;2022-07-23T14:04:11;2.90;;;1.50;;
21503;SDS011;10913;51.992;9.228;2022-07-23T14:06:37;1.80;;;1.33;;
21503;SDS011;10913;51.992;9.228;2022-07-23T14:09:02;1.02;;;0.95;;
21503;SDS011;10913;51.992;9.228;2022-07-23T14:11:28;1.40;;;1.30;;
21503;SDS011;10913;51.992;9.228;2022-07-23T14:13:55;1.50;;;1.15;;
21503;SDS011;10913;51.992;9.228;2022-07-23T14:16:21;1.25;;;1.15;;
21503;SDS011;10913;51.992;9.228;2022-07-23T14:18:46;1.92;;;1.42;;
21503;SDS011;10913;51.992;9.228;2022-07-23T14:21:12;1.10;;;1.10;;
21503;SDS011;10913;51.992;9.228;2022-07-23T14:23:37;1.15;;;1.10;;
21503;SDS011;10913;51.992;9.228;2022-07-23T14:26:03;2.13;;;1.42;;
21503;SDS011;10913;51.992;9.228;2022-07-23T14:28:28;1.42;;;1.33;;
21503;SDS011;10913;51.992;9.228;2022-07-23T14:30:54;1.35;;;1.23;;
21503;SDS011;10913;51.992;9.228;2022-07-23T14:33:19;1.30;;;1.20;;
21503;SDS011;10913;51.992;9.228;2022-07-23T14:35:45;3.40;;;1.40;;
21503;SDS011;10913;51.992;9.228;2022-07-23T14:38:11;1.73;;;1.13;;
21503;SDS011;10913;51.992;9.228;2022-07-23T14:40:36;1.23;;;1.10;;
21503;SDS011;10913;51.992;9.228;2022-07-23T14:43:01;1.20;;;1.10;;
21503;SDS011;10913;51.992;9.228;2022-07-23T14:45:27;1.98;;;1.00;;
21503;SDS011;10913;51.992;9.228;2022-07-23T14:47:55;1.40;;;1.30;;
21503;SDS011;10913;51.992;9.228;2022-07-23T14:50:21;1.75;;;1.20;;
21503;SDS011;10913;51.992;9.228;2022-07-23T14:52:46;2.17;;;1.13;;
21503;SDS011;10913;51.992;9.228;2022-07-23T14:55:11;1.60;;;1.30;;
21503;SDS011;10913;51.992;9.228;2022-07-23T14:57:37;1.27;;;1.20;;
21503;SDS011;10913;51.992;9.228;2022-07-23T15:00:03;1.70;;;1.45;;
21503;SDS011;10913;51.992;9.228;2022-07-23T15:02:31;1.17;;;1.08;;
21503;SDS011;10913;51.992;9.228;2022-07-23T15:04:57;1.38;;;1.27;;
21503;SDS011;10913;51.992;9.228;2022-07-23T15:07:25;1.38;;;1.00;;
21503;SDS011;10913;51.992;9.228;2022-07-23T15:09:51;1.05;;;0.98;;
21503;SDS011;10913;51.992;9.228;2022-07-23T15:12:16;2.08;;;1.30;;
21503;SDS011;10913;51.992;9.228;2022-07-23T15:14:42;1.50;;;1.30;;
21503;SDS011;10913;51.992;9.228;2022-07-23T15:17:08;1.63;;;1.30;;
21503;SDS011;10913;51.992;9.228;2022-07-23T15:19:33;1.73;;;1.20;;
21503;SDS011;10913;51.992;9.228;2022-07-23T15:21:59;1.27;;;1.17;;
21503;SDS011;10913;51.992;9.228;2022-07-23T15:24:24;1.33;;;1.20;;
21503;SDS011;10913;51.992;9.228;2022-07-23T15:26:49;1.52;;;1.20;;
21503;SDS011;10913;51.992;9.228;2022-07-23T15:29:15;1.70;;;1.20;;
21503;SDS011;10913;51.992;9.228;2022-07-23T15:31:40;2.00;;;1.10;;
21503;SDS011;10913;51.992;9.228;2022-07-23T15:34:06;2.20;;;1.13;;
21503;SDS011;10913;51.992;9.228;2022-07-23T15:36:31;1.10;;;1.00;;
21503;SDS011;10913;51.992;9.228;2022-07-23T15:38:57;1.08;;;1.00;;
21503;SDS011;10913;51.992;9.228;2022-07-23T15:41:22;4.18;;;1.17;;
21503;SDS011;10913;51.992;9.228;2022-07-23T15:43:48;1.73;;;1.25;;
21503;SDS011;10913;51.992;9.228;2022-07-23T15:46:13;1.08;;;1.05;;
21503;SDS011;10913;51.992;9.228;2022-07-23T15:48:39;1.27;;;1.17;;
21503;SDS011;10913;51.992;9.228;2022-07-23T15:51:04;2.00;;;1.30;;
21503;SDS011;10913;51.992;9.228;2022-07-23T15:53:31;1.20;;;1.10;;
21503;SDS011;10913;51.992;9.228;2022-07-23T15:55:57;1.10;;;1.10;;
21503;SDS011;10913;51.992;9.228;2022-07-23T15:58:23;1.45;;;1.10;;
21503;SDS011;10913;51.992;9.228;2022-07-23T16:00:48;2.85;;;1.15;;
21503;SDS011;10913;51.992;9.228;2022-07-23T16:03:14;1.90;;;1.20;;
21503;SDS011;10913;51.992;9.228;2022-07-23T16:05:40;1.30;;;1.17;;